Saturday, November 18, 2017, 4:35 PM EST
Back to Local

KMVY, Vineyard Haven Marthas Vin

Location: Vineyard Haven, MA, United States Lat: 41.4
Local Time: 4:35 PM EST (21:35 GMT) Lon: -70.617
Time Zone: US/Eastern Elev: 68 ft

Show me the last for .
Show Decoded

2017-11-18 15:53 METAR KMVY 182053Z 20012KT 10SM CLR 12/07 A2975 RMK AO2 SLP074 T01170067 56030 =
2017-11-18 14:53 METAR KMVY 181953Z 19013KT 10SM CLR 12/06 A2977 RMK AO2 PRESFR SLP082 T01170056
                 =
2017-11-18 13:53 METAR KMVY 181853Z 21011KT 10SM CLR 11/04 A2981 RMK AO2 SLP095 T01110044 =
2017-11-18 12:53 METAR KMVY 181753Z 21012KT 10SM CLR 11/04 A2984 RMK AO2 SLP105 T01110039 10111
                 21056 58037 =
2017-11-18 11:53 METAR KMVY 181653Z 22009KT 10SM CLR 10/02 A2988 RMK AO2 PRESFR SLP117 T01000022
                 =
2017-11-18 10:53 METAR KMVY 181553Z 23012KT 10SM CLR 11/02 A2992 RMK AO2 SLP131 T01060017 =
2017-11-18 09:53 METAR KMVY 181453Z 22008KT 10SM CLR 09/01 A2995 RMK AO2 SLP142 T00890006 58013 =
2017-11-18 08:53 METAR KMVY 181353Z 00000KT 10SM CLR 07/M02 A2997 RMK AO2 SLP148 T00671017 =
2017-11-18 07:53 METAR KMVY 181253Z 00000KT 10SM CLR 01/M04 A2999 RMK AO2 SLP156 T00061039 =
2017-11-18 06:53 METAR KMVY 181153Z 00000KT 10SM CLR M06/M08 A2999 RMK AO2 SLP156 T10561083 10022
                 21072 50002 =
2017-11-18 05:53 METAR KMVY 181053Z AUTO 00000KT 10SM CLR M07/M09 A2999 RMK AO2 SLP157 T10671094
                 =
2017-11-18 04:53 METAR KMVY 180953Z AUTO 25004KT 10SM CLR M06/M08 A2999 RMK AO2 SLP154 T10561083
                 =
2017-11-18 03:53 METAR KMVY 180853Z AUTO 00000KT 10SM CLR M04/M07 A2998 RMK AO2 SLP153 T10391072
                 58006 =
2017-11-18 02:53 METAR KMVY 180753Z AUTO 30005KT 10SM CLR M02/M08 A3000 RMK AO2 SLP159 T10221078
                 =
2017-11-18 01:53 METAR KMVY 180653Z AUTO 31004KT 10SM CLR 02/M08 A3002 RMK AO2 SLP165 T00171078 =
2017-11-18 00:53 METAR KMVY 180553Z AUTO 31006KT 10SM CLR 01/M07 A3000 RMK AO2 SLP159 T00111072
                 10044 20011 53009 =
2017-11-17 23:53 METAR KMVY 180453Z AUTO 32009KT 10SM CLR 02/M07 A2999 RMK AO2 SLP154 T00221072
                 400830017 =
2017-11-17 22:53 METAR KMVY 180353Z AUTO 32008KT 10SM CLR 02/M07 A2998 RMK AO2 SLP151 T00221067 =
2017-11-17 21:53 METAR KMVY 180253Z AUTO 32005KT 10SM CLR 03/M06 A2997 RMK AO2 SLP149 T00281061
                 58004 =
2017-11-17 20:53 METAR KMVY 180153Z AUTO 29007KT 10SM CLR 03/M06 A2999 RMK AO2 SLP157 T00331056 =
2017-11-17 19:53 METAR KMVY 180053Z AUTO 29006KT 10SM CLR 04/M06 A2998 RMK AO2 SLP152 T00391056 =
2017-11-17 18:53 METAR KMVY 172353Z AUTO 29010G17KT 10SM CLR 04/M05 A2998 RMK AO2 SLP153
                 T00441050 10083 20044 51022 =
2017-11-17 17:53 METAR KMVY 172253Z AUTO 31012G20KT 10SM CLR 06/M07 A2997 RMK AO2 SLP147
                 T00561067 =
2017-11-17 16:53 METAR KMVY 172153Z 31011KT 10SM CLR 06/M06 A2994 RMK AO2 SLP139 T00611056 =

Support USWX by starting your Amazon purchase here.